createdAt,value
2018-06-03T00:01:24.058Z,14.80
2018-06-03T00:04:04.454Z,14.70
2018-06-03T00:06:44.515Z,14.80
2018-06-03T00:09:24.151Z,14.50
2018-06-03T00:12:03.071Z,14.20
2018-06-03T00:14:42.097Z,14.20
2018-06-03T00:17:21.443Z,14.40
2018-06-03T00:20:01.383Z,14.50
2018-06-03T00:22:40.515Z,14.30
2018-06-03T00:25:20.470Z,14.20
2018-06-03T00:28:00.211Z,14.20
2018-06-03T00:30:41.098Z,14.20
2018-06-03T00:33:20.315Z,14.50
2018-06-03T00:38:50.295Z,14.50
2018-06-03T00:41:30.700Z,14.40
2018-06-03T00:44:10.754Z,14.20
2018-06-03T00:46:51.015Z,14.20
2018-06-03T00:54:48.721Z,14.20
2018-06-03T00:57:28.260Z,14.00
2018-06-03T01:00:07.792Z,13.90
2018-06-03T01:02:50.003Z,13.90
2018-06-03T01:05:30.052Z,14.10
2018-06-03T01:08:12.869Z,14.20
2018-06-03T01:10:53.222Z,14.00
2018-06-03T01:13:33.083Z,14.00
2018-06-03T01:16:13.030Z,14.20
2018-06-03T01:18:52.106Z,14.30
2018-06-03T01:21:32.682Z,14.20
2018-06-03T01:24:12.059Z,14.20
2018-06-03T01:26:52.223Z,14.30
2018-06-03T01:29:31.744Z,14.20
2018-06-03T01:32:12.034Z,13.80
2018-06-03T01:34:53.188Z,14.10
2018-06-03T01:37:32.927Z,13.90
2018-06-03T01:40:12.364Z,13.70
2018-06-03T01:42:52.932Z,13.70
2018-06-03T01:50:51.246Z,13.80
2018-06-03T01:53:30.575Z,13.60
2018-06-03T01:56:10.940Z,13.60
2018-06-03T01:58:50.478Z,13.40
2018-06-03T02:01:30.227Z,13.40
2018-06-03T02:04:10.014Z,13.70
2018-06-03T02:06:49.599Z,13.90
2018-06-03T02:09:30.064Z,13.60
2018-06-03T02:12:10.787Z,13.50
2018-06-03T02:14:51.200Z,13.20
2018-06-03T02:17:30.735Z,13.50
2018-06-03T02:20:10.280Z,13.30
2018-06-03T02:22:49.706Z,13.10
2018-06-03T02:28:09.517Z,13.40
2018-06-03T02:30:48.845Z,13.50
2018-06-03T02:33:28.432Z,13.20
2018-06-03T02:36:07.725Z,13.20
2018-06-03T02:38:47.265Z,13.00
2018-06-03T02:41:27.185Z,13.10
2018-06-03T02:46:46.091Z,13.30
2018-06-03T02:49:26.855Z,13.00
2018-06-03T02:52:06.182Z,13.40
2018-06-03T02:54:45.525Z,13.30
2018-06-03T02:57:25.272Z,13.30
2018-06-03T03:02:44.154Z,13.30
2018-06-03T03:05:23.997Z,13.00
2018-06-03T03:08:04.351Z,13.00
2018-06-03T03:13:22.319Z,13.00
2018-06-03T03:16:01.850Z,13.10
2018-06-03T03:18:41.293Z,13.00
2018-06-03T03:21:20.409Z,13.20
2018-06-03T03:24:00.059Z,13.40
2018-06-03T03:26:39.389Z,13.20
2018-06-03T03:29:18.661Z,13.10
2018-06-03T03:31:58.483Z,13.20
2018-06-03T03:37:16.323Z,12.90
2018-06-03T03:39:56.374Z,13.20
2018-06-03T03:42:35.718Z,13.10
2018-06-03T03:45:15.104Z,12.90
2018-06-03T03:47:54.573Z,12.80
2018-06-03T03:50:36.170Z,12.70
2018-06-03T03:53:15.504Z,12.80
2018-06-03T03:55:54.934Z,13.20
2018-06-03T03:58:34.182Z,13.20
2018-06-03T04:01:13.613Z,13.20
2018-06-03T04:03:53.196Z,13.10
2018-06-03T04:06:32.592Z,13.20
2018-06-03T04:09:12.941Z,13.10
2018-06-03T04:11:51.921Z,13.20
2018-06-03T04:14:31.511Z,13.40
2018-06-03T04:19:49.656Z,13.70
2018-06-03T04:22:28.907Z,13.70
2018-06-03T04:25:08.660Z,13.80
2018-06-03T04:27:48.417Z,13.40
2018-06-03T04:30:27.846Z,13.30
2018-06-03T04:33:06.961Z,13.30
2018-06-03T04:35:47.630Z,13.40
2018-06-03T04:41:06.344Z,13.60
2018-06-03T04:43:45.882Z,13.30
2018-06-03T04:46:25.462Z,13.50
2018-06-03T04:49:05.241Z,13.60
2018-06-03T04:51:44.770Z,13.80
2018-06-03T04:54:24.932Z,14.00
2018-06-03T04:57:05.298Z,14.00
2018-06-03T04:59:44.829Z,14.00
2018-06-03T05:02:24.570Z,14.00
2018-06-03T05:05:04.103Z,14.10
2018-06-03T05:07:43.749Z,14.10
2018-06-03T05:10:23.387Z,14.10
2018-06-03T05:13:02.922Z,14.30
2018-06-03T05:15:42.684Z,14.20
2018-06-03T05:18:23.452Z,14.20
2018-06-03T05:23:42.216Z,14.20
2018-06-03T05:26:21.449Z,14.30
2018-06-03T05:29:00.792Z,14.30
2018-06-03T05:34:19.865Z,14.30
2018-06-03T05:37:00.343Z,14.40
2018-06-03T05:39:40.584Z,14.50
2018-06-03T05:42:25.170Z,14.40
2018-06-03T05:45:05.338Z,14.30
2018-06-03T05:47:45.954Z,14.30
2018-06-03T05:50:25.557Z,14.30
2018-06-03T05:53:06.271Z,14.40
2018-06-03T05:58:25.149Z,14.60
2018-06-03T06:03:45.549Z,14.60
2018-06-03T06:06:24.890Z,14.80
2018-06-03T06:09:06.615Z,14.80
2018-06-03T06:11:46.318Z,15.00
2018-06-03T06:14:25.970Z,14.90
2018-06-03T06:19:43.917Z,15.00
2018-06-03T06:22:23.979Z,15.00
2018-06-03T06:25:08.838Z,15.20
2018-06-03T06:33:08.900Z,15.40
2018-06-03T06:35:51.510Z,15.40
2018-06-03T06:38:31.454Z,15.60
2018-06-03T06:41:12.014Z,15.50
2018-06-03T06:43:52.173Z,15.60
2018-06-03T06:49:10.948Z,15.80
2018-06-03T06:51:50.902Z,15.90
2018-06-03T06:54:31.362Z,16.00
2018-06-03T06:57:10.583Z,16.10
2018-06-03T06:59:51.768Z,16.10
2018-06-03T07:05:09.715Z,16.40
2018-06-03T07:07:50.087Z,16.60
2018-06-03T07:10:29.626Z,16.60
2018-06-03T07:13:09.715Z,16.60
2018-06-03T07:15:49.214Z,16.60
2018-06-03T07:18:30.295Z,16.70
2018-06-03T07:21:09.931Z,16.90
2018-06-03T07:23:49.269Z,16.90
2018-06-03T07:26:28.648Z,17.00
2018-06-03T07:29:08.351Z,17.10
2018-06-03T07:31:48.302Z,17.30
2018-06-03T07:34:31.530Z,17.50
2018-06-03T07:37:10.995Z,17.60
2018-06-03T07:39:51.431Z,17.60
2018-06-03T07:42:31.158Z,17.60
2018-06-03T07:45:15.537Z,17.80
2018-06-03T07:47:54.852Z,18.00
2018-06-03T07:50:33.941Z,18.10
2018-06-03T07:53:13.525Z,18.10
2018-06-03T07:55:53.486Z,18.20
2018-06-03T07:58:33.135Z,18.20
2018-06-03T08:01:12.556Z,18.30
2018-06-03T08:06:35.024Z,18.40
2018-06-03T08:09:14.453Z,18.50
2018-06-03T08:11:54.202Z,18.70
2018-06-03T08:14:37.635Z,18.80
2018-06-03T08:17:17.058Z,18.90
2018-06-03T08:19:56.301Z,19.10
2018-06-03T08:22:38.706Z,19.00
2018-06-03T08:25:18.141Z,19.20
2018-06-03T08:27:57.793Z,19.20
2018-06-03T08:33:23.116Z,19.50
2018-06-03T08:36:14.448Z,19.80
2018-06-03T08:38:56.420Z,19.70
2018-06-03T08:41:36.390Z,19.80
2018-06-03T08:44:16.217Z,19.70
2018-06-03T08:46:58.826Z,19.80
2018-06-03T08:49:38.472Z,20.00
2018-06-03T08:52:17.811Z,19.70
2018-06-03T08:54:57.139Z,19.80
2018-06-03T08:57:36.377Z,19.80
2018-06-03T09:00:15.708Z,20.10
2018-06-03T09:02:55.471Z,20.30
2018-06-03T09:05:36.734Z,20.50
2018-06-03T09:08:17.296Z,20.60
2018-06-03T09:10:56.523Z,20.60
2018-06-03T09:13:36.476Z,20.70
2018-06-03T09:16:15.868Z,20.80
2018-06-03T09:18:55.770Z,21.20
2018-06-03T09:21:35.610Z,21.10
2018-06-03T09:24:14.957Z,21.30
2018-06-03T09:26:54.683Z,21.40
2018-06-03T09:29:34.955Z,21.70
2018-06-03T09:32:14.700Z,21.40
2018-06-03T09:34:56.171Z,21.30
2018-06-03T09:37:36.126Z,21.60
2018-06-03T09:40:15.353Z,21.50
2018-06-03T09:42:55.007Z,21.80
2018-06-03T09:45:35.313Z,22.10
2018-06-03T09:48:15.122Z,22.10
2018-06-03T09:53:35.618Z,22.00
2018-06-03T09:56:15.286Z,22.50
2018-06-03T09:58:55.447Z,22.40
2018-06-03T10:01:35.586Z,22.10
2018-06-03T10:04:17.288Z,22.00
2018-06-03T10:06:57.328Z,22.10
2018-06-03T10:09:36.968Z,22.70
2018-06-03T10:12:18.208Z,22.90
2018-06-03T10:15:04.740Z,22.90
2018-06-03T10:17:45.461Z,23.10
2018-06-03T10:20:25.861Z,23.30
2018-06-03T10:23:05.819Z,23.20
2018-06-03T10:25:47.917Z,23.30
2018-06-03T10:28:34.638Z,23.50
2018-06-03T10:31:14.279Z,23.40
2018-06-03T10:33:55.336Z,23.60
2018-06-03T10:36:34.977Z,24.00
2018-06-03T10:39:14.311Z,24.00
2018-06-03T10:41:54.268Z,24.00
2018-06-03T10:44:33.919Z,24.10
2018-06-03T10:47:12.949Z,24.40
2018-06-03T10:49:52.684Z,24.30
2018-06-03T10:52:32.101Z,24.40
2018-06-03T10:55:11.697Z,24.60
2018-06-03T10:57:53.286Z,24.70
2018-06-03T11:00:32.863Z,24.90
2018-06-03T11:03:13.061Z,24.90
2018-06-03T11:05:52.483Z,24.80
2018-06-03T11:08:34.472Z,24.90
2018-06-03T11:11:33.986Z,25.20
2018-06-03T11:14:13.993Z,25.10
2018-06-03T11:16:53.907Z,25.30
2018-06-03T11:19:33.424Z,25.30
2018-06-03T11:22:13.488Z,25.20
2018-06-03T11:24:53.539Z,25.30
2018-06-03T11:27:38.099Z,25.40
2018-06-03T11:30:21.128Z,25.60
2018-06-03T11:33:10.807Z,25.40
2018-06-03T11:35:51.160Z,25.60
2018-06-03T11:38:32.139Z,25.80
2018-06-03T11:41:11.781Z,26.10
2018-06-03T11:43:53.763Z,26.00
2018-06-03T11:46:34.441Z,26.10
2018-06-03T11:49:14.823Z,26.10
2018-06-03T11:54:36.875Z,25.80
2018-06-03T11:59:58.799Z,26.20
2018-06-03T12:02:40.079Z,26.50
2018-06-03T12:05:20.019Z,26.10
2018-06-03T12:07:59.959Z,25.80
2018-06-03T12:10:40.443Z,25.80
2018-06-03T12:13:20.681Z,25.80
2018-06-03T12:16:00.880Z,25.70
2018-06-03T12:18:43.560Z,25.80
2018-06-03T12:21:22.774Z,26.10
2018-06-03T12:24:02.529Z,26.50
2018-06-03T12:26:44.631Z,26.50
2018-06-03T12:29:24.698Z,26.70
2018-06-03T12:32:03.811Z,26.70
2018-06-03T12:34:43.343Z,27.00
2018-06-03T12:37:23.604Z,27.00
2018-06-03T12:40:03.459Z,27.10
2018-06-03T12:42:43.299Z,26.80
2018-06-03T12:45:22.959Z,27.20
2018-06-03T12:50:48.420Z,27.40
2018-06-03T12:53:27.926Z,27.50
2018-06-03T12:56:07.367Z,28.00
2018-06-03T13:01:26.248Z,27.90
2018-06-03T13:04:05.322Z,27.70
2018-06-03T13:06:45.397Z,27.90
2018-06-03T13:09:25.144Z,27.90
2018-06-03T13:12:04.887Z,27.90
2018-06-03T13:14:44.659Z,27.80
2018-06-03T13:17:24.403Z,27.60
2018-06-03T13:20:03.825Z,27.50
2018-06-03T13:22:45.930Z,27.90
2018-06-03T13:25:25.987Z,28.00
2018-06-03T13:28:05.527Z,28.20
2018-06-03T13:30:44.859Z,28.40
2018-06-03T13:33:24.600Z,28.40
2018-06-03T13:36:04.541Z,28.00
2018-06-03T13:38:44.075Z,27.90
2018-06-03T13:41:23.617Z,28.20
2018-06-03T13:44:03.106Z,28.40
2018-06-03T13:46:42.811Z,28.70
2018-06-03T13:49:21.938Z,28.10
2018-06-03T13:52:02.508Z,28.50
2018-06-03T13:54:42.980Z,28.70
2018-06-03T13:57:22.088Z,28.60
2018-06-03T14:00:01.830Z,29.00
2018-06-03T14:02:41.700Z,29.00
2018-06-03T14:10:38.554Z,28.80
2018-06-03T14:13:18.205Z,29.00
2018-06-03T14:15:57.533Z,28.90
2018-06-03T14:18:36.778Z,29.30
2018-06-03T14:21:16.189Z,28.80
2018-06-03T14:23:56.480Z,28.70
2018-06-03T14:26:36.379Z,28.40
2018-06-03T14:29:16.062Z,28.10
2018-06-03T14:31:55.852Z,28.30
2018-06-03T14:34:35.361Z,28.20
2018-06-03T14:39:54.273Z,28.40
2018-06-03T14:42:35.509Z,28.60
2018-06-03T14:45:15.246Z,28.50
2018-06-03T14:47:55.527Z,27.90
2018-06-03T14:50:35.248Z,27.80
2018-06-03T14:53:15.239Z,27.70
2018-06-03T14:55:55.346Z,27.20
2018-06-03T14:58:34.459Z,27.60
2018-06-03T15:01:14.910Z,27.80
2018-06-03T15:03:54.332Z,27.60
2018-06-03T15:06:34.066Z,27.50
2018-06-03T15:09:13.829Z,27.40
2018-06-03T15:11:53.768Z,27.20
2018-06-03T15:14:33.317Z,27.90
2018-06-03T15:17:12.757Z,28.10
2018-06-03T15:19:52.083Z,28.10
2018-06-03T15:22:31.545Z,28.40
2018-06-03T15:25:11.185Z,28.60
2018-06-03T15:27:50.450Z,28.60
2018-06-03T15:30:30.286Z,28.90
2018-06-03T15:33:09.921Z,28.70
2018-06-03T15:35:50.723Z,29.10
2018-06-03T15:41:09.383Z,28.70
2018-06-03T15:43:48.684Z,28.80
2018-06-03T15:46:27.734Z,28.70
2018-06-03T15:49:07.205Z,28.80
2018-06-03T15:51:49.188Z,28.90
2018-06-03T15:54:30.583Z,29.00
2018-06-03T15:57:10.123Z,28.80
2018-06-03T15:59:49.345Z,28.90
2018-06-03T16:02:28.900Z,27.60
2018-06-03T16:05:08.531Z,26.90
2018-06-03T16:07:48.494Z,26.40
2018-06-03T16:10:28.426Z,26.10
2018-06-03T16:13:08.170Z,25.80
2018-06-03T16:15:47.427Z,25.80
2018-06-03T16:18:27.269Z,25.50
2018-06-03T16:23:46.240Z,25.90
2018-06-03T16:26:25.793Z,26.10
2018-06-03T16:29:04.896Z,25.80
2018-06-03T16:31:44.589Z,25.50
2018-06-03T16:34:24.093Z,25.40
2018-06-03T16:39:42.496Z,25.20
2018-06-03T16:42:22.078Z,25.40
2018-06-03T16:45:01.658Z,25.00
2018-06-03T16:47:41.466Z,24.40
2018-06-03T16:50:21.877Z,24.60
2018-06-03T16:53:01.575Z,24.60
2018-06-03T16:55:41.008Z,24.40
2018-06-03T16:58:20.744Z,24.60
2018-06-03T17:01:00.615Z,24.60
2018-06-03T17:03:40.246Z,24.80
2018-06-03T17:06:20.587Z,24.60
2018-06-03T17:09:01.686Z,24.60
2018-06-03T17:11:41.725Z,24.70
2018-06-03T17:14:22.287Z,24.80
2018-06-03T17:17:01.825Z,24.80
2018-06-03T17:19:41.785Z,24.70
2018-06-03T17:22:21.125Z,25.20
2018-06-03T17:25:00.747Z,25.40
2018-06-03T17:27:40.314Z,26.10
2018-06-03T17:30:19.827Z,26.10
2018-06-03T17:33:00.174Z,26.20
2018-06-03T17:35:40.550Z,25.40
2018-06-03T17:40:58.623Z,25.00
2018-06-03T17:43:41.549Z,25.00
2018-06-03T17:46:21.881Z,24.80
2018-06-03T17:49:09.008Z,24.70
2018-06-03T17:51:48.243Z,24.60
2018-06-03T17:54:27.483Z,24.50
2018-06-03T17:57:08.132Z,24.20
2018-06-03T17:59:48.389Z,24.00
2018-06-03T18:05:09.286Z,23.80
2018-06-03T18:07:49.464Z,23.80
2018-06-03T18:10:31.311Z,23.80
2018-06-03T18:13:12.104Z,23.50
2018-06-03T18:15:51.773Z,23.60
2018-06-03T18:21:14.017Z,23.40
2018-06-03T18:23:53.681Z,22.90
2018-06-03T18:26:36.062Z,22.90
2018-06-03T18:29:16.949Z,22.70
2018-06-03T18:31:59.346Z,22.50
2018-06-03T18:34:38.605Z,22.80
2018-06-03T18:37:18.241Z,22.80
2018-06-03T18:39:58.281Z,22.80
2018-06-03T18:42:38.540Z,22.40
2018-06-03T18:45:18.377Z,22.50
2018-06-03T18:47:58.022Z,22.10
2018-06-03T18:50:38.282Z,22.00
2018-06-03T18:55:58.284Z,21.50
2018-06-03T18:58:38.855Z,21.40
2018-06-03T19:01:19.421Z,21.30
2018-06-03T19:03:59.892Z,21.50
2018-06-03T19:06:39.097Z,21.50
2018-06-03T19:09:18.850Z,21.70
2018-06-03T19:11:58.494Z,21.60
2018-06-03T19:14:38.468Z,21.10
2018-06-03T19:19:57.003Z,20.90
2018-06-03T19:25:16.083Z,20.90
2018-06-03T19:28:33.414Z,21.00
2018-06-03T19:31:13.030Z,20.80
2018-06-03T19:33:53.206Z,21.00
2018-06-03T19:36:32.861Z,20.80
2018-06-03T19:39:13.520Z,20.80
2018-06-03T19:41:53.367Z,20.80
2018-06-03T19:44:32.705Z,20.60
2018-06-03T19:47:15.514Z,20.30
2018-06-03T19:52:34.615Z,20.10
2018-06-03T19:55:14.859Z,20.30
2018-06-03T19:57:54.300Z,20.20
2018-06-03T20:00:33.840Z,20.10
2018-06-03T20:03:13.700Z,20.10
2018-06-03T20:05:53.629Z,20.30
2018-06-03T20:08:33.648Z,20.50
2018-06-03T20:11:15.987Z,20.30
2018-06-03T20:13:57.681Z,19.90
2018-06-03T20:16:38.751Z,19.80
2018-06-03T20:19:19.517Z,19.70
2018-06-03T20:21:59.985Z,19.50
2018-06-03T20:27:21.219Z,19.60
2018-06-03T20:30:02.398Z,19.60
2018-06-03T20:32:41.940Z,19.80
2018-06-03T20:35:22.187Z,19.60
2018-06-03T20:38:01.733Z,19.50
2018-06-03T20:40:41.280Z,19.50
2018-06-03T20:43:21.027Z,19.60
2018-06-03T20:46:00.468Z,19.30
2018-06-03T20:48:40.201Z,19.30
2018-06-03T20:51:20.299Z,19.30
2018-06-03T20:54:00.519Z,19.10
2018-06-03T20:56:40.581Z,19.20
2018-06-03T20:59:21.739Z,19.20
2018-06-03T21:02:02.000Z,19.00
2018-06-03T21:04:42.779Z,19.10
2018-06-03T21:07:23.218Z,18.70
2018-06-03T21:10:04.904Z,18.60
2018-06-03T21:12:45.374Z,18.40
2018-06-03T21:15:25.341Z,18.60
2018-06-03T21:18:06.218Z,18.50
2018-06-03T21:20:47.775Z,18.50
2018-06-03T21:23:27.726Z,18.30
2018-06-03T21:26:06.979Z,18.30
2018-06-03T21:28:48.361Z,18.40
2018-06-03T21:31:27.935Z,18.20
2018-06-03T21:34:09.481Z,18.30
2018-06-03T21:36:49.641Z,18.40
2018-06-03T21:39:29.982Z,18.20
2018-06-03T21:42:09.244Z,18.40
2018-06-03T21:44:49.082Z,18.50
2018-06-03T21:47:28.320Z,18.40
2018-06-03T21:50:09.042Z,18.40
2018-06-03T21:52:48.821Z,18.30
2018-06-03T21:55:28.889Z,18.10
2018-06-03T21:58:08.219Z,18.20
2018-06-03T22:00:48.064Z,18.30
2018-06-03T22:03:27.691Z,18.30
2018-06-03T22:06:07.021Z,18.30
2018-06-03T22:08:47.600Z,18.40
2018-06-03T22:11:27.976Z,18.50
2018-06-03T22:14:07.599Z,18.50
2018-06-03T22:19:28.421Z,18.30
2018-06-03T22:22:08.355Z,18.10
2018-06-03T22:24:47.900Z,18.10
2018-06-03T22:27:27.359Z,18.10
2018-06-03T22:32:45.620Z,18.20
2018-06-03T22:35:25.261Z,18.30
2018-06-03T22:38:05.520Z,18.10
2018-06-03T22:40:45.550Z,17.70
2018-06-03T22:43:25.398Z,17.80
2018-06-03T22:46:05.461Z,17.90
2018-06-03T22:51:24.016Z,17.70
2018-06-03T22:58:01.233Z,17.60
2018-06-03T23:03:20.106Z,17.40
2018-06-03T23:05:59.841Z,17.50
2018-06-03T23:08:40.939Z,17.80
2018-06-03T23:11:21.791Z,17.90
2018-06-03T23:14:03.173Z,17.60
2018-06-03T23:16:43.048Z,17.50
2018-06-03T23:19:22.677Z,17.50
2018-06-03T23:22:02.210Z,17.40
2018-06-03T23:24:43.981Z,17.30
2018-06-03T23:27:23.949Z,17.20
2018-06-03T23:30:03.908Z,17.40
2018-06-03T23:32:44.281Z,17.60
2018-06-03T23:35:23.899Z,17.20
2018-06-03T23:38:03.955Z,17.00
2018-06-03T23:40:44.740Z,16.80
2018-06-03T23:46:04.221Z,16.90
2018-06-03T23:48:44.058Z,16.60
2018-06-03T23:51:23.822Z,16.40
2018-06-03T23:59:19.959Z,17.00
